Time;durP1;ratioP1;P1;durP2;ratioP2;P2;SDS_P1;SDS_P2;PMS_P1;PMS_P2;Temp;Humidity;BMP_temperature;BMP_pressure;BME280_temperature;BME280_humidity;BME280_pressure;Samples;Min_cycle;Max_cycle;Signal;HPM_P1;HPM_P2
2022/04/16 00:00:22;;;;;;;15.60;8.50;;;;;;;9.02;100.00;99029.50;4380017;32;20128;-68
2022/04/16 00:02:50;;;;;;;14.48;8.18;;;;;;;9.02;100.00;99025.13;4379589;32;20070;-68
2022/04/16 00:05:17;;;;;;;18.58;8.88;;;;;;;8.93;100.00;99023.22;4379927;32;20134;-68
2022/04/16 00:07:44;;;;;;;14.07;8.52;;;;;;;8.88;100.00;99017.53;4380309;32;20407;-68
2022/04/16 00:10:12;;;;;;;16.87;9.15;;;;;;;8.81;100.00;99016.34;4379968;32;20491;-68
2022/04/16 00:12:39;;;;;;;19.15;9.65;;;;;;;8.74;100.00;99007.34;4379893;32;20078;-68
2022/04/16 00:15:06;;;;;;;15.05;8.68;;;;;;;8.74;100.00;99004.72;4379885;32;20107;-68
2022/04/16 00:17:36;;;;;;;13.88;7.72;;;;;;;8.70;100.00;99004.97;4379836;32;20094;-68
2022/04/16 00:20:07;;;;;;;13.18;8.35;;;;;;;8.70;100.00;99010.19;4379827;32;20133;-68
2022/04/16 00:22:34;;;;;;;12.30;7.43;;;;;;;8.77;99.17;99020.16;4379781;32;20136;-68
2022/04/16 00:25:01;;;;;;;16.50;8.20;;;;;;;8.76;98.84;99015.88;4379720;32;20117;-68
2022/04/16 00:27:28;;;;;;;14.60;7.57;;;;;;;8.71;98.62;99005.78;4379778;32;20094;-68
2022/04/16 00:29:56;;;;;;;11.82;7.55;;;;;;;8.70;98.57;99004.97;4379588;32;20105;-68
2022/04/16 00:32:23;;;;;;;13.30;6.65;;;;;;;8.61;99.00;99007.44;4380040;32;20091;-68
2022/04/16 00:34:50;;;;;;;13.30;8.23;;;;;;;8.54;99.00;98999.25;4379805;32;20122;-68
2022/04/16 00:37:17;;;;;;;12.25;7.32;;;;;;;8.48;99.05;98997.13;4379727;32;20103;-68
2022/04/16 00:39:44;;;;;;;12.13;7.47;;;;;;;8.51;98.40;99020.41;4379981;32;20567;-68
2022/04/16 00:42:11;;;;;;;12.77;7.37;;;;;;;8.41;98.61;98988.06;4379646;32;20078;-68
2022/04/16 00:44:39;;;;;;;11.07;6.87;;;;;;;8.39;98.23;98988.19;4379911;32;20106;-68
2022/04/16 00:47:07;;;;;;;13.23;7.37;;;;;;;8.38;97.09;98986.50;4379652;32;20171;-68
2022/04/16 00:49:34;;;;;;;10.05;6.18;;;;;;;8.31;96.52;98973.13;4379534;32;20086;-68
2022/04/16 00:52:02;;;;;;;11.55;5.85;;;;;;;8.34;95.57;98982.47;4366185;32;20590;-68
2022/04/16 00:54:29;;;;;;;12.23;6.70;;;;;;;8.22;95.55;98981.66;4379654;32;20102;-68
2022/04/16 00:56:56;;;;;;;11.07;5.60;;;;;;;8.16;95.51;98976.88;4366196;32;20102;-68
2022/04/16 00:59:24;;;;;;;12.30;6.25;;;;;;;8.15;95.06;98970.00;4379854;32;20422;-68
2022/04/16 01:01:51;;;;;;;10.18;6.53;;;;;;;8.15;95.01;98972.63;4379347;32;20086;-68
2022/04/16 01:04:18;;;;;;;10.40;5.97;;;;;;;8.07;95.33;98960.16;4379570;32;20150;-68
2022/04/16 01:06:48;;;;;;;7.85;5.37;;;;;;;7.99;95.61;98968.56;4379564;32;20121;-68
2022/04/16 01:09:16;;;;;;;11.32;5.80;;;;;;;7.94;95.62;98968.06;4379307;32;20113;-68
2022/04/16 01:11:44;;;;;;;8.82;5.80;;;;;;;7.90;95.73;98961.44;4379536;32;20121;-68
2022/04/16 01:14:12;;;;;;;10.88;5.95;;;;;;;7.86;95.91;98951.31;4379488;32;20166;-68
2022/04/16 01:16:39;;;;;;;12.73;6.40;;;;;;;7.81;96.12;98957.72;4378914;32;20439;-68
2022/04/16 01:19:09;;;;;;;10.32;6.22;;;;;;;7.73;96.50;98962.69;4379472;32;20094;-68
2022/04/16 01:21:37;;;;;;;9.50;6.12;;;;;;;7.66;97.17;98958.88;4379543;32;20090;-68
2022/04/16 01:24:05;;;;;;;11.57;6.65;;;;;;;7.63;97.46;98954.72;4379508;32;20087;-68
2022/04/16 01:26:32;;;;;;;10.50;5.50;;;;;;;7.59;97.76;98957.66;4379357;32;20095;-68
2022/04/16 01:29:01;;;;;;;12.57;6.87;;;;;;;7.58;98.02;98943.78;4379281;32;20598;-68
2022/04/16 01:31:30;;;;;;;8.95;6.00;;;;;;;7.55;98.37;98948.41;4379356;32;20112;-68
2022/04/16 01:33:57;;;;;;;8.02;5.50;;;;;;;7.50;98.70;98956.56;4379433;32;20099;-68
2022/04/16 01:36:29;;;;;;;11.52;5.75;;;;;;;7.50;98.96;98938.31;4379439;32;20106;-68
2022/04/16 01:38:57;;;;;;;9.75;6.28;;;;;;;7.43;99.19;98942.31;4379336;32;20087;-68
2022/04/16 01:41:25;;;;;;;9.85;5.85;;;;;;;7.45;99.06;98950.88;4379310;32;20090;-68
2022/04/16 01:43:53;;;;;;;12.60;6.10;;;;;;;7.40;99.42;98948.59;4379191;32;20433;-68
2022/04/16 01:46:21;;;;;;;11.93;6.45;;;;;;;7.38;99.62;98953.06;4379527;32;20445;-68
2022/04/16 01:48:53;;;;;;;9.25;5.40;;;;;;;7.29;100.00;98951.16;4379202;32;20082;-68
2022/04/16 01:51:22;;;;;;;11.15;6.60;;;;;;;7.28;100.00;98946.88;4379448;32;20066;-68
2022/04/16 01:53:49;;;;;;;8.52;5.28;;;;;;;7.27;100.00;98943.44;4379183;32;20091;-68
2022/04/16 01:56:16;;;;;;;9.57;5.50;;;;;;;7.26;100.00;98935.72;4379260;32;20095;-68
2022/04/16 01:58:44;;;;;;;12.75;6.30;;;;;;;7.25;100.00;98940.13;4379438;32;20091;-68
2022/04/16 02:01:11;;;;;;;10.95;6.50;;;;;;;7.23;100.00;98934.16;4378960;32;20099;-68
2022/04/16 02:03:38;;;;;;;7.78;5.20;;;;;;;7.14;100.00;98921.00;4378925;32;20103;-68
2022/04/16 02:06:06;;;;;;;9.27;6.07;;;;;;;7.13;100.00;98937.56;4379385;32;20083;-68
2022/04/16 02:08:33;;;;;;;13.68;6.68;;;;;;;7.14;100.00;98934.03;4379305;32;20091;-68
2022/04/16 02:11:00;;;;;;;9.40;5.93;;;;;;;7.04;100.00;98934.69;4378870;32;20095;-68
2022/04/16 02:13:27;;;;;;;13.00;6.53;;;;;;;7.01;100.00;98934.91;4379307;32;20091;-68
2022/04/16 02:15:56;;;;;;;13.15;7.00;;;;;;;7.00;100.00;98932.41;4379083;32;20094;-68
2022/04/16 02:18:23;;;;;;;15.05;7.65;;;;;;;6.99;100.00;98935.97;4378918;32;20103;-68
2022/04/16 02:20:50;;;;;;;11.02;7.03;;;;;;;7.04;100.00;98928.63;4379029;32;20079;-68
2022/04/16 02:23:17;;;;;;;12.90;7.57;;;;;;;7.09;100.00;98937.78;4378920;32;20155;-68
2022/04/16 02:25:45;;;;;;;13.32;6.82;;;;;;;7.12;100.00;98931.53;4378984;32;20098;-68
2022/04/16 02:28:12;;;;;;;14.13;7.75;;;;;;;7.24;100.00;98932.41;4377879;32;20108;-68
2022/04/16 02:30:40;;;;;;;15.65;7.70;;;;;;;7.33;100.00;98930.88;4365062;32;20113;-68
2022/04/16 02:33:07;;;;;;;13.23;7.82;;;;;;;7.38;100.00;98934.00;4378817;32;20126;-68
2022/04/16 02:35:34;;;;;;;14.20;7.28;;;;;;;7.34;100.00;98940.38;4378833;32;20460;-68
2022/04/16 02:38:02;;;;;;;13.20;7.68;;;;;;;7.38;99.92;98928.81;4378700;32;20475;-68
2022/04/16 02:40:29;;;;;;;13.00;6.32;;;;;;;7.42;99.52;98933.66;4378674;32;20453;-68
2022/04/16 02:42:56;;;;;;;9.52;6.12;;;;;;;7.44;99.36;98936.16;4378766;32;20095;-68
2022/04/16 02:48:10;;;;;;;13.25;5.70;;;;;;;7.51;98.74;98921.75;4378516;32;20165;-68
2022/04/16 02:50:37;;;;;;;11.80;6.95;;;;;;;7.47;98.72;98928.94;4378507;32;20165;-68
2022/04/16 02:53:04;;;;;;;12.30;6.07;;;;;;;7.46;98.40;98914.25;4378621;32;20106;-68
2022/04/16 02:55:32;;;;;;;11.20;6.05;;;;;;;7.51;98.10;98919.13;4378481;32;20173;-68
2022/04/16 02:57:59;;;;;;;12.52;7.43;;;;;;;7.43;98.32;98911.87;4378463;32;20087;-68
2022/04/16 03:00:26;;;;;;;14.48;7.00;;;;;;;7.38;98.72;98903.56;4378717;32;20087;-68
2022/04/16 03:02:54;;;;;;;10.35;5.90;;;;;;;7.37;98.79;98911.50;4378114;32;20107;-68
2022/04/16 03:05:22;;;;;;;11.00;7.10;;;;;;;7.37;98.52;98901.88;4378203;32;20532;-68
2022/04/16 03:07:50;;;;;;;9.60;6.60;;;;;;;7.29;98.87;98912.88;4378293;32;20091;-68
2022/04/16 03:10:17;;;;;;;12.13;6.93;;;;;;;7.23;99.49;98909.91;4378386;32;20150;-68
2022/04/16 03:12:51;;;;;;;10.40;6.22;;;;;;;7.18;99.71;98905.03;4378204;32;20122;-68
2022/04/16 03:18:07;;;;;;;10.30;5.82;;;;;;;7.10;99.73;98912.56;4378309;32;20456;-68
2022/04/16 03:20:37;;;;;;;10.57;6.97;;;;;;;7.11;99.96;98914.22;4378103;32;20137;-68
2022/04/16 03:23:04;;;;;;;13.75;6.15;;;;;;;7.10;99.89;98912.56;4377957;32;20461;-68
2022/04/16 03:25:31;;;;;;;13.62;6.28;;;;;;;7.11;99.83;98914.22;4378141;32;20521;-68
2022/04/16 03:27:59;;;;;;;8.95;5.80;;;;;;;7.00;100.00;98912.41;4378144;32;20476;-68
2022/04/16 03:30:26;;;;;;;9.85;5.55;;;;;;;6.97;100.00;98928.25;4377755;32;20475;-68
2022/04/16 03:32:53;;;;;;;8.15;5.10;;;;;;;7.02;100.00;98935.75;4378006;32;20118;-68
2022/04/16 03:35:22;;;;;;;8.95;5.78;;;;;;;7.00;100.00;98922.81;4378009;32;20139;-68
2022/04/16 03:37:50;;;;;;;10.25;5.78;;;;;;;6.96;100.00;98923.97;4377865;32;20086;-68
2022/04/16 03:40:17;;;;;;;7.55;4.85;;;;;;;7.05;100.00;98910.28;4380250;32;20118;-68
2022/04/16 03:42:50;;;;;;;8.95;5.00;;;;;;;6.98;100.00;98909.09;4380054;32;20492;-68
2022/04/16 03:45:20;;;;;;;6.70;4.00;;;;;;;6.94;100.00;98928.47;4380010;32;20091;-68
2022/04/16 03:47:48;;;;;;;8.90;5.28;;;;;;;6.96;99.86;98944.00;4380269;32;20567;-68
2022/04/16 03:50:16;;;;;;;8.35;5.22;;;;;;;6.97;99.62;98943.06;4379848;32;20090;-68
2022/04/16 03:52:46;;;;;;;6.68;4.05;;;;;;;6.98;99.34;98935.13;4380002;32;20099;-68
2022/04/16 04:00:51;;;;;;;7.68;4.65;;;;;;;6.79;99.99;98933.00;4380094;32;20106;-68
2022/04/16 04:03:20;;;;;;;8.27;4.85;;;;;;;6.78;100.00;98930.50;4379650;32;20098;-68
2022/04/16 04:05:53;;;;;;;9.40;5.05;;;;;;;6.78;100.00;98941.75;4379903;32;20674;-68
2022/04/16 04:08:22;;;;;;;10.82;4.47;;;;;;;6.74;100.00;98945.53;4379903;32;20157;-68
2022/04/16 04:10:49;;;;;;;8.60;4.57;;;;;;;6.70;100.00;98960.50;4380014;32;20129;-68
2022/04/16 04:13:17;;;;;;;8.38;4.62;;;;;;;6.68;100.00;98962.41;4379711;32;20477;-68
2022/04/16 04:15:44;;;;;;;9.23;5.18;;;;;;;6.73;100.00;98959.47;4379782;32;20474;-68
2022/04/16 04:18:12;;;;;;;8.00;4.78;;;;;;;6.74;100.00;98963.75;4379859;32;20094;-68
2022/04/16 04:20:39;;;;;;;9.30;5.22;;;;;;;6.74;100.00;98964.56;4379866;32;20113;-68
2022/04/16 04:23:06;;;;;;;9.90;5.75;;;;;;;6.67;100.00;98952.91;4379656;32;20117;-68
2022/04/16 04:25:33;;;;;;;8.40;5.30;;;;;;;6.65;100.00;98967.00;4379751;32;20105;-68
2022/04/16 04:28:01;;;;;;;10.35;5.70;;;;;;;6.63;100.00;98971.47;4379650;32;20495;-68
2022/04/16 04:30:30;;;;;;;9.30;5.95;;;;;;;6.64;100.00;98968.75;4379377;32;20109;-68
2022/04/16 04:32:58;;;;;;;10.07;4.97;;;;;;;6.70;100.00;98968.31;4379862;32;20107;-68
2022/04/16 04:35:26;;;;;;;10.27;6.55;;;;;;;6.71;100.00;98975.19;4379570;32;20161;-68
2022/04/16 04:37:54;;;;;;;9.85;5.65;;;;;;;6.75;100.00;98975.81;4379896;32;20129;-68
2022/04/16 04:40:21;;;;;;;11.88;6.35;;;;;;;6.71;100.00;98979.59;4379556;32;20105;-68
2022/04/16 04:42:49;;;;;;;11.32;5.35;;;;;;;6.75;100.00;98978.41;4379651;32;20107;-68
2022/04/16 04:45:16;;;;;;;9.48;5.30;;;;;;;6.83;100.00;98970.06;4379645;32;20121;-68
2022/04/16 04:47:44;;;;;;;10.82;6.45;;;;;;;6.68;100.00;98964.19;4379570;32;20094;-68
2022/04/16 04:50:11;;;;;;;10.75;5.57;;;;;;;6.70;100.00;98957.09;4378605;32;20083;-68
2022/04/16 04:52:40;;;;;;;11.55;5.75;;;;;;;6.73;100.00;98962.06;4379397;32;20103;-68
2022/04/16 04:55:11;;;;;;;7.28;5.28;;;;;;;6.77;100.00;98962.69;4379605;32;20141;-67
2022/04/16 04:57:40;;;;;;;8.48;5.25;;;;;;;6.79;100.00;98966.84;4379748;32;20147;-68
2022/04/16 05:00:09;;;;;;;8.35;5.70;;;;;;;6.80;100.00;98973.72;4379492;32;20079;-68
2022/04/16 05:02:47;;;;;;;7.87;4.53;;;;;;;6.90;99.48;98986.91;4379531;32;20121;-68
2022/04/16 05:05:17;;;;;;;6.10;3.65;;;;;;;7.00;98.49;98997.53;4379585;32;20146;-67
2022/04/16 05:07:44;;;;;;;10.07;5.78;;;;;;;7.18;97.24;99003.22;4379616;32;20105;-67
2022/04/16 05:10:12;;;;;;;9.25;5.18;;;;;;;7.26;97.10;99000.88;4379346;32;20109;-68
2022/04/16 05:12:39;;;;;;;6.30;4.10;;;;;;;7.37;96.71;99002.72;4379762;32;20102;-68
2022/04/16 05:15:07;;;;;;;6.45;4.18;;;;;;;7.51;95.77;98999.09;4379502;32;20099;-68
2022/04/16 05:17:37;;;;;;;8.77;4.80;;;;;;;7.66;94.81;99008.44;4379446;32;20449;-68
2022/04/16 05:20:07;;;;;;;8.18;4.87;;;;;;;7.68;94.74;99000.50;4379540;32;20078;-68
2022/04/16 05:22:34;;;;;;;9.10;4.97;;;;;;;7.69;94.49;98996.91;4379370;32;20091;-68
2022/04/16 05:25:02;;;;;;;9.30;4.30;;;;;;;7.62;94.26;99002.59;4379446;32;20103;-68
2022/04/16 05:27:30;;;;;;;8.15;4.90;;;;;;;7.66;94.11;98999.75;4379318;32;20173;-68
2022/04/16 05:30:07;;;;;;;9.18;5.12;;;;;;;7.66;94.38;99007.56;4379274;32;20456;-68
2022/04/16 05:32:40;;;;;;;9.27;4.40;;;;;;;7.59;94.33;99012.41;4379481;32;20171;-68
2022/04/16 05:35:09;;;;;;;8.05;4.43;;;;;;;7.45;94.93;99001.22;4379404;32;20087;-68
2022/04/16 05:37:37;;;;;;;8.13;4.18;;;;;;;7.39;95.66;99011.28;4379198;32;20481;-68
2022/04/16 05:40:04;;;;;;;2.87;2.17;;;;;;;7.35;94.83;99017.63;4379354;32;20161;-68
2022/04/16 05:42:31;;;;;;;8.82;4.07;;;;;;;7.28;94.70;99010.25;4379354;32;20121;-68
2022/04/16 05:45:01;;;;;;;7.25;4.30;;;;;;;7.26;94.93;99006.09;4379253;32;20523;-68
2022/04/16 05:47:28;;;;;;;7.62;4.37;;;;;;;7.28;95.57;99014.62;4379278;32;20129;-68
2022/04/16 05:49:55;;;;;;;8.35;4.18;;;;;;;7.33;95.81;99022.97;4379123;32;20141;-68
2022/04/16 05:52:23;;;;;;;7.78;4.45;;;;;;;7.59;94.72;99020.25;4379202;32;20571;-68
2022/04/16 05:54:51;;;;;;;6.57;4.05;;;;;;;7.75;93.28;99028.59;4379101;32;20095;-68
2022/04/16 05:57:22;;;;;;;5.50;3.40;;;;;;;7.78;92.29;99022.31;4365646;32;20133;-68
2022/04/16 05:59:50;;;;;;;5.57;3.60;;;;;;;7.95;91.02;99024.53;4379107;32;20105;-68
2022/04/16 06:02:18;;;;;;;5.18;3.40;;;;;;;7.88;90.71;99040.75;4365247;32;20464;-68
2022/04/16 06:04:45;;;;;;;6.28;3.78;;;;;;;7.98;90.33;99028.69;4365689;32;20218;-68
2022/04/16 06:07:13;;;;;;;6.55;3.97;;;;;;;8.05;89.92;99034.25;4378955;32;20091;-68
2022/04/16 06:09:40;;;;;;;6.82;3.75;;;;;;;8.03;89.80;99031.78;4379007;32;20113;-68
2022/04/16 06:12:09;;;;;;;7.60;4.18;;;;;;;7.96;89.43;99034.03;4379014;32;20175;-68
2022/04/16 06:14:36;;;;;;;6.37;4.18;;;;;;;8.03;89.09;99041.37;4379034;32;20090;-68
2022/04/16 06:17:03;;;;;;;6.03;4.07;;;;;;;8.07;89.81;99033.22;4379371;32;20094;-68
2022/04/16 06:19:31;;;;;;;8.45;3.85;;;;;;;8.28;88.12;99014.25;4378813;32;20110;-68
2022/04/16 06:21:58;;;;;;;6.05;3.30;;;;;;;8.57;87.47;99030.38;4378796;32;20608;-68
2022/04/16 06:24:25;;;;;;;6.97;4.10;;;;;;;8.72;86.25;99035.34;4378927;32;20095;-67
2022/04/16 06:26:52;;;;;;;7.00;4.28;;;;;;;8.58;86.79;99037.22;4378912;32;20106;-68
2022/04/16 06:29:19;;;;;;;6.60;4.03;;;;;;;8.57;87.31;99040.81;4378950;32;20082;-68
2022/04/16 06:31:46;;;;;;;6.10;3.80;;;;;;;8.45;86.51;99047.78;4378685;32;20149;-67
2022/04/16 06:34:14;;;;;;;5.70;3.50;;;;;;;8.37;86.67;99051.91;4378816;32;20090;-68
2022/04/16 06:36:41;;;;;;;6.00;3.75;;;;;;;8.39;86.20;99052.59;4378755;32;20086;-68
2022/04/16 06:39:08;;;;;;;6.53;3.83;;;;;;;8.46;86.20;99052.06;4378874;32;20109;-68
2022/04/16 06:41:36;;;;;;;6.75;4.00;;;;;;;8.45;86.43;99053.00;4378810;32;20366;-68
2022/04/16 06:44:03;;;;;;;6.05;3.90;;;;;;;8.56;85.75;99060.03;4378759;32;20443;-68
2022/04/16 06:46:30;;;;;;;5.78;3.40;;;;;;;8.74;85.71;99051.75;4378668;32;20124;-68
2022/04/16 06:48:58;;;;;;;6.15;3.95;;;;;;;9.01;84.35;99044.34;4378812;32;20133;-68
2022/04/16 06:51:25;;;;;;;5.32;2.92;;;;;;;9.20;82.29;99067.25;4378427;32;20496;-68
2022/04/16 06:53:52;;;;;;;6.82;3.95;;;;;;;9.34;81.67;99055.72;4378623;32;20164;-68
2022/04/16 06:56:19;;;;;;;6.07;3.67;;;;;;;9.26;80.71;99057.28;4378612;32;20094;-68
2022/04/16 06:58:52;;;;;;;7.07;3.97;;;;;;;9.40;81.07;99065.69;4378465;32;20145;-68
2022/04/16 07:01:19;;;;;;;5.78;3.28;;;;;;;9.50;80.37;99059.72;4378711;32;20126;-68
2022/04/16 07:03:46;;;;;;;6.70;3.92;;;;;;;9.78;78.86;99074.03;4378027;32;20098;-68
2022/04/16 07:06:13;;;;;;;6.55;3.95;;;;;;;9.95;77.63;99072.66;4378452;32;20082;-68
2022/04/16 07:08:41;;;;;;;7.80;3.22;;;;;;;10.26;76.33;99072.72;4378291;32;20106;-68
2022/04/16 07:11:08;;;;;;;5.57;3.28;;;;;;;10.51;75.92;99061.06;4378131;32;20095;-68
2022/04/16 07:13:35;;;;;;;6.35;3.72;;;;;;;10.93;73.88;99065.38;4378946;32;20125;-68
2022/04/16 07:16:03;;;;;;;7.70;3.95;;;;;;;11.07;72.47;99067.66;4380431;32;20116;-68
2022/04/16 07:18:30;;;;;;;5.72;3.83;;;;;;;10.88;72.02;99073.66;4380251;32;20095;-68
2022/04/16 07:20:57;;;;;;;6.75;4.20;;;;;;;10.77;72.35;99074.56;4380316;32;20118;-68
2022/04/16 07:23:24;;;;;;;7.12;3.95;;;;;;;10.88;71.45;99078.06;4380318;32;20103;-68
2022/04/16 07:25:51;;;;;;;6.10;3.50;;;;;;;11.04;70.93;99077.56;4380142;32;20082;-68
2022/04/16 07:28:22;;;;;;;4.85;3.35;;;;;;;11.01;71.32;99076.88;4380126;32;20090;-68
2022/04/16 07:30:50;;;;;;;5.78;3.37;;;;;;;10.88;71.18;99072.81;4380169;32;20163;-68
2022/04/16 07:33:18;;;;;;;5.00;2.97;;;;;;;10.74;71.09;99076.63;4380204;32;20091;-68
2022/04/16 07:35:45;;;;;;;5.18;3.28;;;;;;;10.47;71.18;99093.72;4380024;32;20082;-68
2022/04/16 07:38:12;;;;;;;8.70;3.55;;;;;;;10.62;70.95;99088.97;4380068;32;20086;-68
2022/04/16 07:40:39;;;;;;;5.65;3.67;;;;;;;10.89;70.20;99090.22;4380119;32;20098;-68
2022/04/16 07:43:06;;;;;;;5.35;3.40;;;;;;;11.06;70.96;99086.97;4379885;32;20087;-68
2022/04/16 07:45:34;;;;;;;6.90;3.72;;;;;;;11.73;68.05;99084.63;4380007;32;20102;-68
2022/04/16 07:48:06;;;;;;;5.18;3.08;;;;;;;11.97;65.14;99102.66;4380096;32;20096;-68
2022/04/16 07:50:34;;;;;;;5.53;3.50;;;;;;;12.30;64.55;99099.75;4379797;32;20567;-68
2022/04/16 07:53:02;;;;;;;5.40;3.25;;;;;;;12.67;63.34;99098.97;4380273;32;20117;-68
2022/04/16 07:55:31;;;;;;;4.72;2.85;;;;;;;12.69;63.62;99094.44;4379854;32;20082;-68
2022/04/16 07:57:59;;;;;;;9.77;4.80;;;;;;;12.31;64.05;99109.28;4380038;32;20098;-68
2022/04/16 08:00:26;;;;;;;6.50;3.37;;;;;;;12.14;64.87;99098.53;4379922;32;20102;-68
2022/04/16 08:02:54;;;;;;;3.62;2.85;;;;;;;11.80;66.83;99103.31;4379664;32;20087;-68
2022/04/16 08:05:21;;;;;;;4.47;2.83;;;;;;;11.81;65.58;99108.41;4379889;32;20460;-68
2022/04/16 08:07:55;;;;;;;4.80;2.78;;;;;;;11.84;64.90;99102.91;4379960;32;20133;-68
2022/04/16 08:10:22;;;;;;;4.65;3.15;;;;;;;11.69;66.19;99106.88;4379802;32;20453;-68
2022/04/16 08:12:49;;;;;;;3.55;2.30;;;;;;;11.88;65.48;99104.28;4379876;32;20090;-68
2022/04/16 08:15:17;;;;;;;3.87;2.80;;;;;;;11.99;65.11;99115.63;4379842;32;20468;-68
2022/04/16 08:17:44;;;;;;;3.42;2.47;;;;;;;11.84;65.54;99108.16;4379947;32;20074;-68
2022/04/16 08:20:11;;;;;;;4.05;2.72;;;;;;;12.02;64.50;99113.59;4379763;32;20098;-68
2022/04/16 08:22:46;;;;;;;6.60;3.10;;;;;;;11.99;64.20;99115.63;4379848;32;20149;-68
2022/04/16 08:27:48;;;;;;;4.63;2.47;;;;;;;12.26;65.05;99122.81;4379870;32;20120;-68
2022/04/16 08:30:16;;;;;;;4.60;2.90;;;;;;;12.40;63.17;99113.72;4379594;32;20099;-68
2022/04/16 08:32:44;;;;;;;4.57;2.58;;;;;;;12.36;62.40;99128.09;4379730;32;20421;-68
2022/04/16 08:35:14;;;;;;;4.07;2.50;;;;;;;12.63;62.41;99124.72;4379619;32;20086;-68
2022/04/16 08:37:42;;;;;;;4.37;2.45;;;;;;;13.03;61.41;99128.06;4379613;32;20087;-68
2022/04/16 08:40:12;;;;;;;3.53;2.25;;;;;;;13.19;60.07;99130.91;4379733;32;20133;-68
2022/04/16 08:42:40;;;;;;;2.97;2.20;;;;;;;12.99;59.91;99126.69;4379710;32;20159;-68
2022/04/16 08:45:09;;;;;;;3.35;2.25;;;;;;;13.13;60.75;99136.75;4379608;32;20091;-68
2022/04/16 08:47:39;;;;;;;3.62;2.37;;;;;;;12.89;60.02;99126.75;4379939;32;20116;-68
2022/04/16 08:50:08;;;;;;;3.33;2.17;;;;;;;12.29;60.79;99127.78;4379526;32;20111;-68
2022/04/16 08:52:37;;;;;;;2.72;1.90;;;;;;;12.14;61.28;99137.06;4379645;32;20154;-68
2022/04/16 08:55:09;;;;;;;3.78;2.17;;;;;;;11.94;61.41;99130.97;4379622;32;20090;-68
2022/04/16 08:57:38;;;;;;;3.70;2.20;;;;;;;11.57;63.40;99136.81;4379581;32;20074;-68
2022/04/16 09:00:06;;;;;;;3.60;1.65;;;;;;;11.31;65.57;99132.87;4379535;32;20117;-68
2022/04/16 09:02:33;;;;;;;4.82;1.87;;;;;;;11.41;66.22;99138.16;4379428;32;20161;-68
2022/04/16 09:05:10;;;;;;;3.62;2.17;;;;;;;11.43;66.00;99131.00;4379711;32;20432;-68
2022/04/16 09:07:51;;;;;;;3.65;2.08;;;;;;;11.48;65.65;99139.28;4379453;32;20097;-68
2022/04/16 09:10:20;;;;;;;3.15;1.92;;;;;;;11.49;66.13;99138.34;4379521;32;20125;-68
2022/04/16 09:12:53;;;;;;;4.32;1.83;;;;;;;11.50;66.25;99136.53;4379762;32;20091;-68
2022/04/16 09:15:22;;;;;;;3.13;1.67;;;;;;;11.45;65.25;99142.19;4379528;32;20109;-68
2022/04/16 09:17:57;;;;;;;2.58;1.73;;;;;;;11.33;65.45;99148.50;4379396;32;20198;-68
2022/04/16 09:20:36;;;;;;;2.87;1.90;;;;;;;11.12;66.27;99144.12;4379554;32;20091;-68
2022/04/16 09:23:21;;;;;;;2.47;1.75;;;;;;;11.21;65.57;99150.38;4379337;32;20086;-68
2022/04/16 09:25:50;;;;;;;2.42;1.48;;;;;;;11.08;65.67;99155.00;4379353;32;20590;-68
2022/04/16 09:28:19;;;;;;;3.90;1.70;;;;;;;11.11;65.39;99144.25;4379248;32;20074;-67
2022/04/16 09:30:50;;;;;;;2.28;1.70;;;;;;;11.24;65.16;99146.66;4379197;32;20094;-68
2022/04/16 09:33:18;;;;;;;4.68;1.80;;;;;;;11.45;65.17;99147.44;4379344;32;20117;-67
2022/04/16 09:35:47;;;;;;;3.55;1.83;;;;;;;11.56;64.69;99143.88;4378782;32;20091;-68
2022/04/16 09:38:14;;;;;;;1.90;1.23;;;;;;;11.64;64.14;99141.41;4379349;32;20090;-67
2022/04/16 09:40:46;;;;;;;3.08;1.70;;;;;;;11.81;63.82;99150.41;4379232;32;20178;-67
2022/04/16 09:43:14;;;;;;;2.20;1.60;;;;;;;11.75;63.51;99150.13;4379407;32;20113;-68
2022/04/16 09:45:42;;;;;;;2.67;1.67;;;;;;;11.89;63.08;99142.69;4379250;32;20113;-68
2022/04/16 09:48:12;;;;;;;2.58;1.73;;;;;;;11.87;61.89;99143.81;4379147;32;20082;-68
2022/04/16 09:50:41;;;;;;;2.22;1.65;;;;;;;11.95;61.94;99149.22;4378917;32;20160;-68
2022/04/16 09:53:10;;;;;;;3.55;1.83;;;;;;;12.14;61.57;99140.53;4378867;32;20111;-68
2022/04/16 09:55:40;;;;;;;2.92;1.95;;;;;;;12.36;61.81;99149.09;4379128;32;20169;-68
2022/04/16 09:58:07;;;;;;;3.65;2.12;;;;;;;12.57;60.43;99152.41;4379170;32;20083;-68
2022/04/16 10:00:36;;;;;;;5.45;1.70;;;;;;;12.57;60.17;99152.41;4365658;32;20134;-68
2022/04/16 10:03:25;;;;;;;2.17;1.40;;;;;;;12.66;60.03;99145.47;4377964;32;20086;-68
2022/04/16 10:05:56;;;;;;;2.55;1.55;;;;;;;12.38;60.50;99145.38;4379183;32;20133;-68
2022/04/16 10:08:25;;;;;;;2.83;1.62;;;;;;;12.27;60.85;99147.31;4365738;32;20156;-68
2022/04/16 10:10:54;;;;;;;1.90;1.50;;;;;;;12.40;61.06;99148.69;4378618;32;20145;-68
2022/04/16 10:13:23;;;;;;;4.25;1.80;;;;;;;12.44;60.15;99149.22;4378744;32;20121;-68
2022/04/16 10:16:14;;;;;;;1.98;1.42;;;;;;;12.40;60.40;99147.87;4365351;32;20859;-68
2022/04/16 10:18:44;;;;;;;1.48;1.12;;;;;;;12.35;59.75;99148.25;4365362;32;20197;-68
2022/04/16 10:21:16;;;;;;;3.17;1.40;;;;;;;12.28;59.22;99152.44;4378822;32;20122;-68
2022/04/16 10:23:46;;;;;;;2.47;1.33;;;;;;;12.24;60.65;99151.84;4378928;32;20450;-68
2022/04/16 10:26:14;;;;;;;2.67;1.42;;;;;;;12.22;59.21;99148.53;4378849;32;20527;-68
2022/04/16 10:28:42;;;;;;;2.33;1.55;;;;;;;12.25;59.89;99148.28;4378831;32;20117;-68
2022/04/16 10:31:24;;;;;;;3.05;1.70;;;;;;;12.25;59.90;99152.72;4378827;32;20476;-68
2022/04/16 10:33:57;;;;;;;1.83;1.35;;;;;;;12.19;60.07;99143.56;4378993;32;20539;-68
2022/04/16 10:36:32;;;;;;;1.98;1.48;;;;;;;12.14;59.75;99151.03;4378626;32;20463;-68
2022/04/16 10:39:00;;;;;;;2.08;1.50;;;;;;;12.05;59.98;99146.59;4379227;32;20133;-68
2022/04/16 10:41:28;;;;;;;3.37;1.37;;;;;;;11.98;60.81;99146.31;4378574;32;20170;-68
2022/04/16 10:44:00;;;;;;;1.98;1.27;;;;;;;11.93;60.68;99150.31;4379079;32;20138;-68
2022/04/16 10:46:47;;;;;;;1.42;1.10;;;;;;;11.82;60.33;99152.06;4378675;32;20094;-68
2022/04/16 10:49:16;;;;;;;1.87;1.45;;;;;;;11.94;60.59;99152.00;4377616;32;20512;-68
2022/04/16 10:51:44;;;;;;;2.25;1.52;;;;;;;11.83;59.90;99140.59;4378493;32;20497;-68
2022/04/16 10:54:18;;;;;;;4.28;1.90;;;;;;;11.93;60.30;99147.69;4378606;32;20086;-68
2022/04/16 10:56:54;;;;;;;2.75;1.45;;;;;;;11.92;59.30;99152.09;4364998;32;20173;-68
2022/04/16 10:59:40;;;;;;;1.48;1.10;;;;;;;12.22;59.31;99148.53;4378580;32;20090;-68
2022/04/16 11:02:25;;;;;;;2.17;1.35;;;;;;;12.01;58.71;99158.38;4378193;32;20162;-67
2022/04/16 11:05:09;;;;;;;2.00;1.40;;;;;;;12.24;59.80;99157.09;4378397;32;20102;-68
2022/04/16 11:07:39;;;;;;;4.15;1.70;;;;;;;12.35;58.72;99144.81;4378442;32;20082;-68
2022/04/16 11:10:08;;;;;;;2.05;1.40;;;;;;;12.42;57.38;99146.75;4378464;32;20090;-68
2022/04/16 11:12:39;;;;;;;3.25;1.50;;;;;;;12.23;57.73;99155.47;4378191;32;20099;-68
2022/04/16 11:15:24;;;;;;;3.22;1.92;;;;;;;12.41;56.60;99141.63;4378279;32;20150;-68
2022/04/16 11:17:54;;;;;;;;;;;;;;;12.50;57.80;99146.03;4378690;32;20466;-68
2022/04/16 11:20:23;;;;;;;2.28;1.23;;;;;;;12.52;57.02;99144.12;4378290;32;20466;-68
2022/04/16 11:22:50;;;;;;;2.47;1.37;;;;;;;12.34;57.15;99137.88;4378162;32;20420;-68
2022/04/16 11:25:17;;;;;;;2.00;1.55;;;;;;;12.32;57.47;99138.03;4378249;32;20102;-68
2022/04/16 11:36:08;;;;;;;2.83;0.80;;;;;;;11.67;57.64;99142.91;4378086;32;20083;-68
2022/04/16 11:38:39;;;;;;;5.57;1.40;;;;;;;11.55;57.01;99147.44;4377869;32;20377;-67
2022/04/16 11:41:10;;;;;;;1.87;1.25;;;;;;;11.48;57.50;99136.66;4378080;32;20082;-68
2022/04/16 11:43:51;;;;;;;1.92;1.27;;;;;;;11.47;57.74;99142.03;4377922;32;20099;-68
2022/04/16 11:46:18;;;;;;;1.35;1.05;;;;;;;11.51;57.44;99138.19;4378016;32;20176;-67
2022/04/16 11:48:47;;;;;;;1.10;0.95;;;;;;;11.61;56.99;99148.72;4377838;32;20441;-67
2022/04/16 11:51:15;;;;;;;1.45;1.00;;;;;;;11.62;59.31;99145.94;4364265;32;20523;-67
2022/04/16 11:53:47;;;;;;;2.22;1.35;;;;;;;11.45;65.40;99150.06;4377751;32;20125;-67
2022/04/16 11:56:21;;;;;;;1.42;1.10;;;;;;;11.25;64.53;99154.41;4377671;32;20143;-68
2022/04/16 11:58:52;;;;;;;1.40;1.20;;;;;;;11.13;65.49;99144.97;4364324;32;20507;-67
2022/04/16 12:01:23;;;;;;;23.25;8.95;;;;;;;11.06;66.56;99155.13;4366758;32;20091;-68
2022/04/16 12:03:56;;;;;;;6.20;2.65;;;;;;;11.00;68.30;99139.94;4379751;32;20178;-68